Time;durP1;ratioP1;P1;durP2;ratioP2;P2;SDS_P1;SDS_P2;PMS_P1;PMS_P2;Temp;Humidity;BMP_temperature;BMP_pressure;BME280_temperature;BME280_humidity;BME280_pressure;Samples;Min_cycle;Max_cycle;Signal;HPM_P1;HPM_P2
2022/09/22 00:01:18;;;;;;;5.10;2.20;;;;;;;6.79;88.49;101836.13;107726;1277;74796;-77
2022/09/22 00:03:51;;;;;;;5.50;2.40;;;;;;;6.75;88.53;101836.82;107623;1274;73446;-77
2022/09/22 00:06:29;;;;;;;5.00;2.30;;;;;;;6.71;88.81;101836.76;107918;1274;74117;-77
2022/09/22 00:09:00;;;;;;;5.60;2.50;;;;;;;6.69;89.23;101841.67;107522;1274;62401;-77
2022/09/22 00:11:29;;;;;;;6.70;2.60;;;;;;;6.67;89.09;101842.18;107548;1274;59329;-77
2022/09/22 00:14:01;;;;;;;6.90;2.50;;;;;;;6.66;89.43;101841.38;107642;1274;76214;-77
2022/09/22 00:16:36;;;;;;;4.80;2.60;;;;;;;6.64;89.37;101840.98;107724;1274;70333;-78
2022/09/22 00:19:07;;;;;;;5.50;2.50;;;;;;;6.62;89.21;101840.61;107755;1274;72983;-77
2022/09/22 00:21:35;;;;;;;8.30;2.70;;;;;;;6.59;89.19;101835.77;107302;1276;62154;-77
2022/09/22 00:24:03;;;;;;;6.00;2.50;;;;;;;6.56;89.60;101836.16;107956;1274;61741;-78
2022/09/22 00:26:30;;;;;;;8.20;2.60;;;;;;;6.55;89.77;101832.58;107767;1277;76000;-77
2022/09/22 00:29:00;;;;;;;4.40;2.30;;;;;;;6.54;89.80;101834.27;107941;1274;72165;-77
2022/09/22 00:31:28;;;;;;;5.60;2.20;;;;;;;6.52;89.78;101839.80;107790;1274;73219;-77
2022/09/22 00:33:56;;;;;;;5.00;2.40;;;;;;;6.50;89.71;101832.38;107915;1274;61417;-77
2022/09/22 00:36:25;;;;;;;6.90;2.40;;;;;;;6.48;89.80;101828.55;107413;1274;61137;-77
2022/09/22 00:38:54;;;;;;;6.50;2.50;;;;;;;6.47;89.60;101835.45;107895;1274;75417;-77
2022/09/22 00:41:23;;;;;;;3.70;2.20;;;;;;;6.42;89.42;101830.45;107599;1276;71687;-78
2022/09/22 00:44:27;;;;;;;6.60;2.40;;;;;;;6.38;89.68;101830.89;107979;1276;72842;-77
2022/09/22 00:47:00;;;;;;;5.50;2.20;;;;;;;6.36;89.87;101828.21;107631;1274;62423;-77
2022/09/22 00:49:35;;;;;;;5.10;2.50;;;;;;;6.35;89.90;101828.48;107947;1274;60287;-77
2022/09/22 00:52:05;;;;;;;3.80;2.20;;;;;;;6.35;89.88;101828.67;107702;1274;76184;-77
2022/09/22 00:54:33;;;;;;;5.20;2.20;;;;;;;6.34;90.06;101822.59;107565;1274;72384;-77
2022/09/22 00:57:10;;;;;;;7.60;2.50;;;;;;;6.33;89.95;101821.77;107720;1274;72429;-77
2022/09/22 00:59:38;;;;;;;6.60;2.80;;;;;;;6.31;89.97;101821.40;108046;1274;62544;-78
2022/09/22 01:02:05;;;;;;;6.60;2.70;;;;;;;6.30;90.26;101820.40;107825;1274;61017;-77
2022/09/22 01:04:32;;;;;;;8.30;2.90;;;;;;;6.30;90.28;101817.27;107848;1274;75085;-77
2022/09/22 01:07:01;;;;;;;6.80;3.10;;;;;;;6.30;90.56;101815.51;107616;1274;72209;-77
2022/09/22 01:09:31;;;;;;;7.40;2.90;;;;;;;6.31;90.64;101815.44;107822;1273;74319;-78
2022/09/22 01:12:02;;;;;;;4.60;2.50;;;;;;;6.30;90.61;101814.12;107778;1274;62440;-78
2022/09/22 01:14:52;;;;;;;7.70;2.90;;;;;;;6.28;90.46;101815.33;107501;1276;61152;-77
2022/09/22 01:17:18;;;;;;;5.80;2.60;;;;;;;6.27;90.58;101816.30;107910;1274;75791;-78
2022/09/22 01:19:54;;;;;;;6.00;2.50;;;;;;;6.27;90.68;101811.77;108061;1274;59987;-77
2022/09/22 01:22:45;;;;;;;6.60;2.90;;;;;;;6.25;90.39;101810.80;107593;1275;73035;-78
2022/09/22 01:25:21;;;;;;;5.90;3.00;;;;;;;6.24;90.50;101809.00;107957;1274;60743;-78
2022/09/22 01:28:05;;;;;;;6.00;3.30;;;;;;;6.22;90.82;101804.55;107758;1274;61274;-77
2022/09/22 01:30:40;;;;;;;7.10;3.30;;;;;;;6.22;91.25;101805.25;107763;1274;73956;-78
2022/09/22 01:33:18;;;;;;;8.90;3.30;;;;;;;6.23;91.42;101801.36;107679;1274;72729;-78
2022/09/22 01:35:56;;;;;;;8.60;3.00;;;;;;;6.24;91.49;101800.77;107867;1274;74837;-78
2022/09/22 01:38:35;;;;;;;6.20;3.00;;;;;;;6.22;91.48;101800.68;107846;1275;62169;-78
2022/09/22 01:41:07;;;;;;;6.50;2.90;;;;;;;6.19;91.27;101802.52;107881;1274;63267;-77
2022/09/22 01:43:49;;;;;;;7.30;2.90;;;;;;;6.15;92.01;101804.08;107693;1277;75988;-77
2022/09/22 01:46:45;;;;;;;6.20;3.10;;;;;;;6.10;91.69;101804.80;107865;1273;71214;-78
2022/09/22 01:49:14;;;;;;;11.50;4.00;;;;;;;6.09;91.87;101799.60;107856;1274;72300;-78
2022/09/22 01:51:50;;;;;;;8.70;3.70;;;;;;;6.09;91.88;101799.05;107399;1277;61399;-77
2022/09/22 01:54:23;;;;;;;7.30;3.30;;;;;;;6.10;91.83;101802.84;108142;1274;61147;-77
2022/09/22 01:56:56;;;;;;;8.20;3.20;;;;;;;6.10;91.81;101801.27;107364;1276;74986;-77
2022/09/22 01:59:27;;;;;;;5.60;3.10;;;;;;;6.09;91.68;101798.91;107975;1273;71111;-78
2022/09/22 02:02:01;;;;;;;5.20;3.10;;;;;;;6.07;91.76;101798.86;107367;1274;74399;-76
2022/09/22 02:04:42;;;;;;;5.90;3.30;;;;;;;6.05;91.70;101802.16;108009;1272;62956;-77
2022/09/22 02:07:14;;;;;;;6.20;3.60;;;;;;;6.04;91.63;101803.69;107522;1274;62269;-78
2022/09/22 02:09:41;;;;;;;6.20;3.00;;;;;;;6.02;91.84;101798.35;107471;1276;76262;-78
2022/09/22 02:12:08;;;;;;;6.20;3.20;;;;;;;6.00;91.68;101796.61;108035;1274;72319;-78
2022/09/22 02:14:35;;;;;;;7.10;3.20;;;;;;;5.97;91.73;101791.02;108090;1271;74511;-78
2022/09/22 02:17:02;;;;;;;6.30;3.20;;;;;;;5.98;92.11;101791.69;107795;1274;61236;-78
2022/09/22 02:19:35;;;;;;;6.50;3.10;;;;;;;5.97;92.01;101792.09;107782;1274;61462;-79
2022/09/22 02:22:03;;;;;;;7.00;3.00;;;;;;;5.97;92.18;101787.38;107638;1274;73824;-78
2022/09/22 02:24:41;;;;;;;8.10;3.30;;;;;;;5.97;92.18;101785.42;107976;1273;71289;-78
2022/09/22 02:27:26;;;;;;;6.60;3.30;;;;;;;5.95;92.15;101789.77;107567;1274;72956;-77
2022/09/22 02:30:07;;;;;;;5.00;2.80;;;;;;;5.94;91.91;101790.91;107784;1274;62452;-78
2022/09/22 02:32:36;;;;;;;6.10;3.10;;;;;;;5.92;92.11;101792.41;107889;1274;60478;-78
2022/09/22 02:35:05;;;;;;;6.20;3.00;;;;;;;5.91;92.06;101789.86;107493;1275;75964;-84
2022/09/22 02:37:45;;;;;;;5.50;3.00;;;;;;;5.89;91.73;101785.48;107719;1274;71524;-78
2022/09/22 02:40:35;;;;;;;6.90;3.00;;;;;;;5.84;91.61;101784.27;107866;1274;72825;-78
2022/09/22 02:43:16;;;;;;;5.10;3.20;;;;;;;5.81;91.83;101784.11;107361;1274;61763;-78
2022/09/22 02:46:07;;;;;;;6.50;2.90;;;;;;;5.80;91.81;101780.56;107695;1274;61314;-79
2022/09/22 02:48:48;;;;;;;7.90;3.30;;;;;;;5.76;92.01;101778.39;107962;1274;74582;-78
2022/09/22 02:51:17;;;;;;;5.50;3.00;;;;;;;5.76;92.15;101777.72;107608;1274;72130;-78
2022/09/22 02:53:44;;;;;;;6.80;3.10;;;;;;;5.75;92.13;101774.42;108075;1274;74485;-79
2022/09/22 02:56:11;;;;;;;7.50;3.30;;;;;;;5.73;92.03;101772.98;107345;1274;62516;-78
2022/09/22 02:58:38;;;;;;;7.40;3.10;;;;;;;5.70;91.81;101770.53;107807;1274;60741;-78
2022/09/22 03:01:07;;;;;;;4.90;2.70;;;;;;;5.68;91.72;101771.09;107642;1274;77297;-78
2022/09/22 03:03:35;;;;;;;7.30;2.80;;;;;;;5.66;91.76;101767.38;107879;1274;71514;-78
2022/09/22 03:06:01;;;;;;;6.50;2.90;;;;;;;5.65;91.79;101766.95;107768;1274;73711;-79
2022/09/22 03:08:32;;;;;;;5.50;3.20;;;;;;;5.64;91.77;101764.90;107722;1274;62215;-77
2022/09/22 03:10:59;;;;;;;6.00;2.80;;;;;;;5.64;92.18;101763.86;107986;1274;62745;-78
2022/09/22 03:13:26;;;;;;;5.90;3.20;;;;;;;5.62;91.81;101759.57;107665;1274;75747;-78
2022/09/22 03:15:52;;;;;;;4.80;2.80;;;;;;;5.61;91.97;101757.92;107807;1274;72766;-78
2022/09/22 03:18:20;;;;;;;6.80;3.30;;;;;;;5.61;92.18;101757.43;107281;1274;74474;-78
2022/09/22 03:20:47;;;;;;;6.60;3.50;;;;;;;5.60;92.12;101750.96;107627;1274;61492;-77
2022/09/22 03:23:13;;;;;;;8.00;3.20;;;;;;;5.60;92.14;101750.83;107916;1275;61259;-77
2022/09/22 03:25:40;;;;;;;6.60;3.50;;;;;;;5.59;92.32;101751.26;107712;1274;74639;-77
2022/09/22 03:28:07;;;;;;;8.30;3.60;;;;;;;5.58;92.33;101749.71;107393;1274;71320;-78
2022/09/22 03:30:36;;;;;;;8.50;3.20;;;;;;;5.57;92.30;101744.94;108091;1274;74521;-77
2022/09/22 03:33:03;;;;;;;6.10;3.70;;;;;;;5.55;92.36;101746.84;107804;1274;61201;-78
2022/09/22 03:35:30;;;;;;;8.30;3.80;;;;;;;5.54;92.56;101746.89;108016;1274;60602;-78
2022/09/22 03:37:57;;;;;;;5.80;3.70;;;;;;;5.54;92.81;101748.32;107830;1274;75933;-77
2022/09/22 03:40:24;;;;;;;6.80;3.70;;;;;;;5.54;92.65;101747.44;108057;1274;71425;-77
2022/09/22 03:42:51;;;;;;;6.80;3.70;;;;;;;5.53;92.80;101742.89;107488;1275;72692;-78
2022/09/22 03:45:18;;;;;;;6.70;3.40;;;;;;;5.53;92.84;101741.16;107565;1273;60413;-77
2022/09/22 03:47:45;;;;;;;7.20;3.90;;;;;;;5.53;92.79;101740.64;107869;1274;61473;-78
2022/09/22 03:50:13;;;;;;;6.80;3.80;;;;;;;5.53;92.84;101740.48;107495;1274;73982;-78
2022/09/22 03:52:41;;;;;;;7.30;3.80;;;;;;;5.53;92.94;101744.19;107709;1275;72487;-78
2022/09/22 03:55:09;;;;;;;6.50;3.40;;;;;;;5.52;92.84;101737.38;107694;1274;73661;-78
2022/09/22 03:57:36;;;;;;;5.70;3.40;;;;;;;5.50;92.91;101735.75;107704;1274;60411;-77
2022/09/22 04:00:04;;;;;;;7.50;3.70;;;;;;;5.47;92.72;101740.18;107934;1274;61104;-78
2022/09/22 04:02:31;;;;;;;8.90;3.50;;;;;;;5.45;92.70;101738.92;107251;1277;76239;-78
2022/09/22 04:04:59;;;;;;;6.50;3.60;;;;;;;5.45;93.07;101740.55;107669;1274;70891;-78
2022/09/22 04:07:25;;;;;;;7.60;3.50;;;;;;;5.44;93.18;101737.79;107929;1274;73117;-78
2022/09/22 04:09:53;;;;;;;8.50;3.60;;;;;;;5.44;93.07;101740.27;107901;1274;61166;-78
2022/09/22 04:12:20;;;;;;;5.60;3.50;;;;;;;5.43;93.14;101737.84;107790;1275;61509;-78
2022/09/22 04:14:47;;;;;;;6.40;3.50;;;;;;;5.43;93.16;101737.89;107748;1274;74940;-77
2022/09/22 04:17:14;;;;;;;7.00;3.60;;;;;;;5.44;93.39;101739.75;107812;1274;71029;-78
2022/09/22 04:19:41;;;;;;;6.30;3.80;;;;;;;5.44;93.58;101737.45;107829;1274;73989;-78
2022/09/22 04:22:08;;;;;;;7.30;3.60;;;;;;;5.42;93.24;101731.95;107669;1274;62988;-78
2022/09/22 04:24:36;;;;;;;9.10;3.90;;;;;;;5.42;93.38;101733.08;107845;1274;61095;-78
2022/09/22 04:27:03;;;;;;;7.50;4.40;;;;;;;5.41;93.60;101729.78;107791;1274;76225;-78
2022/09/22 04:29:47;;;;;;;6.60;4.00;;;;;;;5.40;93.59;101730.34;107876;1274;71528;-78
2022/09/22 04:32:15;;;;;;;8.70;3.90;;;;;;;5.39;93.46;101729.30;107867;1274;74252;-78
2022/09/22 04:34:42;;;;;;;8.10;4.00;;;;;;;5.38;93.64;101727.42;108004;1274;62426;-78
2022/09/22 04:37:09;;;;;;;8.40;3.70;;;;;;;5.37;93.70;101724.10;107754;1275;60815;-78
2022/09/22 04:39:36;;;;;;;9.00;3.70;;;;;;;5.37;93.52;101723.81;107550;1277;75865;-78
2022/09/22 04:42:03;;;;;;;6.70;3.80;;;;;;;5.36;93.56;101722.45;107654;1277;72275;-77
2022/09/22 04:44:30;;;;;;;6.00;4.10;;;;;;;5.36;93.54;101724.59;107915;1274;74973;-77
2022/09/22 04:47:01;;;;;;;9.60;4.40;;;;;;;5.36;93.83;101722.61;107693;1274;61382;-78
2022/09/22 04:49:28;;;;;;;8.50;4.80;;;;;;;5.38;93.85;101723.36;108017;1274;61504;-77
2022/09/22 04:51:54;;;;;;;7.50;4.40;;;;;;;5.39;94.01;101726.09;107917;1274;75129;-77
2022/09/22 04:54:21;;;;;;;7.20;4.20;;;;;;;5.40;94.07;101727.05;108035;1273;71154;-78
2022/09/22 04:56:48;;;;;;;8.40;4.10;;;;;;;5.40;94.11;101724.77;107365;1277;74001;-78
2022/09/22 04:59:15;;;;;;;7.60;4.10;;;;;;;5.41;94.25;101724.91;107987;1274;60672;-78
2022/09/22 05:01:42;;;;;;;8.40;4.20;;;;;;;5.41;94.20;101723.96;107834;1276;61281;-77
2022/09/22 05:04:09;;;;;;;10.30;4.20;;;;;;;5.42;94.19;101722.50;107980;1274;74549;-77
2022/09/22 05:06:36;;;;;;;8.30;4.60;;;;;;;5.44;94.23;101718.89;107682;1274;72671;-78
2022/09/22 05:09:03;;;;;;;7.20;4.10;;;;;;;5.44;94.25;101717.98;108055;1272;72831;-77
2022/09/22 05:11:30;;;;;;;7.30;4.00;;;;;;;5.45;94.21;101717.68;107779;1274;61252;-78
2022/09/22 05:13:57;;;;;;;9.60;4.20;;;;;;;5.45;93.97;101716.32;108093;1274;61189;-77
2022/09/22 05:16:24;;;;;;;7.80;4.30;;;;;;;5.45;93.98;101717.89;107633;1274;76129;-78
2022/09/22 05:18:51;;;;;;;6.20;3.80;;;;;;;5.46;94.21;101717.33;107243;1273;71507;-78
2022/09/22 05:21:18;;;;;;;7.00;3.90;;;;;;;5.48;94.33;101716.64;107763;1274;73207;-78
2022/09/22 05:23:45;;;;;;;7.50;4.00;;;;;;;5.48;93.96;101720.67;107762;1274;60477;-77
2022/09/22 05:26:12;;;;;;;11.70;4.20;;;;;;;5.49;93.78;101716.70;107763;1274;60326;-77
2022/09/22 05:28:39;;;;;;;14.20;4.60;;;;;;;5.55;94.20;101719.12;107730;1274;73775;-78
2022/09/22 05:31:06;;;;;;;7.70;4.80;;;;;;;5.60;94.45;101720.81;107828;1274;72149;-78
2022/09/22 05:33:33;;;;;;;8.70;4.20;;;;;;;5.65;94.68;101718.46;108030;1274;72680;-77
2022/09/22 05:36:00;;;;;;;11.30;4.60;;;;;;;5.71;94.56;101719.63;107895;1274;61492;-77
2022/09/22 05:38:27;;;;;;;6.00;4.30;;;;;;;5.78;94.51;101722.80;107921;1274;60598;-78
2022/09/22 05:40:54;;;;;;;10.10;6.10;;;;;;;5.85;94.66;101722.75;107796;1271;75197;-78
2022/09/22 05:43:21;;;;;;;11.70;6.30;;;;;;;5.93;94.74;101726.66;107780;1274;72704;-77
2022/09/22 05:45:48;;;;;;;9.40;5.70;;;;;;;6.02;94.75;101730.58;107520;1274;74120;-77
2022/09/22 05:48:15;;;;;;;8.40;4.50;;;;;;;6.09;94.60;101733.39;107572;1274;62160;-77
2022/09/22 05:50:44;;;;;;;7.30;4.40;;;;;;;6.16;94.55;101738.44;107784;1274;60555;-77
2022/09/22 05:53:11;;;;;;;11.50;5.90;;;;;;;6.25;94.45;101737.43;107820;1274;74016;-78
2022/09/22 05:55:39;;;;;;;12.10;6.40;;;;;;;6.33;94.50;101738.48;107533;1273;71108;-78
2022/09/22 05:58:08;;;;;;;13.60;7.40;;;;;;;6.42;94.43;101736.61;107523;1274;74564;-77
2022/09/22 06:00:35;;;;;;;13.30;6.80;;;;;;;6.51;94.39;101737.11;107396;1276;60526;-77
2022/09/22 06:03:03;;;;;;;12.20;6.60;;;;;;;6.61;94.26;101739.09;107543;1275;61408;-77
2022/09/22 06:05:30;;;;;;;14.90;7.10;;;;;;;6.72;94.34;101738.56;107863;1275;74968;-81
2022/09/22 06:08:02;;;;;;;12.90;6.80;;;;;;;6.82;94.28;101735.64;108072;1274;71320;-81
2022/09/22 06:10:30;;;;;;;16.00;9.30;;;;;;;6.94;94.14;101733.83;107520;1274;73735;-81
2022/09/22 06:13:01;;;;;;;12.20;5.70;;;;;;;7.02;93.84;101733.16;107995;1274;61184;-80
2022/09/22 06:15:29;;;;;;;10.20;4.80;;;;;;;7.11;93.85;101733.59;107915;1274;60143;-80
2022/09/22 06:17:57;;;;;;;11.10;4.40;;;;;;;7.23;93.70;101736.67;107134;1274;75551;-81
2022/09/22 06:20:24;;;;;;;17.00;12.80;;;;;;;7.35;93.60;101739.76;108112;1274;71380;-80
2022/09/22 06:22:51;;;;;;;9.40;5.10;;;;;;;7.44;93.28;101739.19;107793;1272;72992;-81
2022/09/22 06:25:18;;;;;;;11.70;6.30;;;;;;;7.55;93.47;101739.09;108142;1274;61151;-81
2022/09/22 06:27:46;;;;;;;8.40;4.40;;;;;;;7.68;93.15;101735.75;107518;1274;61275;-81
2022/09/22 06:30:12;;;;;;;8.50;3.70;;;;;;;7.80;93.02;101737.92;107905;1276;75491;-81
2022/09/22 06:32:42;;;;;;;5.40;3.40;;;;;;;7.91;92.94;101737.48;107747;1274;71258;-81
2022/09/22 06:35:10;;;;;;;7.50;3.50;;;;;;;8.04;92.91;101734.58;107453;1276;73901;-81
2022/09/22 06:37:37;;;;;;;8.80;3.30;;;;;;;8.16;92.36;101731.45;107838;1274;61656;-79
2022/09/22 06:40:07;;;;;;;7.40;3.30;;;;;;;8.26;91.64;101732.17;107894;1274;61533;-80
2022/09/22 06:42:35;;;;;;;7.60;3.10;;;;;;;8.35;91.24;101731.94;108092;1274;75244;-80
2022/09/22 06:45:03;;;;;;;6.50;3.10;;;;;;;8.45;91.36;101732.29;107488;1275;70648;-80
2022/09/22 06:47:31;;;;;;;8.50;3.40;;;;;;;8.59;91.65;101731.02;107498;1274;74283;-79
2022/09/22 06:50:01;;;;;;;7.00;3.40;;;;;;;8.76;91.09;101726.58;107938;1274;61384;-80
2022/09/22 06:52:28;;;;;;;7.90;4.40;;;;;;;8.90;90.68;101729.31;107979;1276;60873;-80
2022/09/22 06:54:59;;;;;;;8.50;3.30;;;;;;;9.04;90.56;101731.63;107433;1274;75894;-79
2022/09/22 06:57:30;;;;;;;8.00;3.50;;;;;;;9.20;90.11;101732.81;107779;1274;70502;-79
2022/09/22 07:00:01;;;;;;;8.40;3.20;;;;;;;9.35;89.86;101731.94;107829;1276;73484;-79
2022/09/22 07:02:29;;;;;;;9.70;3.60;;;;;;;9.47;89.14;101730.70;107520;1274;61443;-79
2022/09/22 07:04:59;;;;;;;9.50;3.70;;;;;;;9.59;88.50;101731.17;107421;1274;61191;-80
2022/09/22 07:07:27;;;;;;;9.10;3.60;;;;;;;9.69;87.92;101729.19;107955;1274;74649;-79
2022/09/22 07:09:54;;;;;;;8.10;3.30;;;;;;;9.78;87.45;101728.50;107785;1274;71499;-79
2022/09/22 07:12:21;;;;;;;8.80;3.30;;;;;;;9.87;87.02;101732.08;107602;1274;73883;-79
2022/09/22 07:14:50;;;;;;;9.90;4.40;;;;;;;9.98;86.82;101733.11;107490;1274;63698;-78
2022/09/22 07:17:19;;;;;;;7.80;3.60;;;;;;;10.10;86.59;101734.90;107894;1274;60340;-79
2022/09/22 07:19:46;;;;;;;8.60;3.70;;;;;;;10.24;86.65;101742.34;107260;1274;75004;-78
2022/09/22 07:22:17;;;;;;;7.70;3.90;;;;;;;10.41;86.88;101739.14;107669;1274;71869;-79
2022/09/22 07:24:44;;;;;;;7.90;3.40;;;;;;;10.56;85.92;101743.84;107468;1274;72965;-79
2022/09/22 07:27:19;;;;;;;8.70;3.00;;;;;;;10.68;84.96;101744.67;108034;1274;62232;-79
2022/09/22 07:29:47;;;;;;;8.20;2.90;;;;;;;10.80;84.86;101745.27;107753;1274;61154;-79
2022/09/22 07:32:14;;;;;;;6.00;2.60;;;;;;;10.94;84.93;101746.34;108023;1274;74704;-80
2022/09/22 07:34:41;;;;;;;7.00;3.20;;;;;;;11.07;84.56;101742.11;107913;1274;70207;-79
2022/09/22 07:37:10;;;;;;;7.60;3.10;;;;;;;11.22;84.59;101740.19;107519;1274;72918;-79
2022/09/22 07:39:37;;;;;;;5.50;3.00;;;;;;;11.41;84.39;101740.49;107468;1274;63677;-79
2022/09/22 07:42:04;;;;;;;7.40;3.10;;;;;;;11.50;82.75;101738.53;107512;1274;60856;-79
2022/09/22 07:48:34;;;;;;;5.90;3.30;;;;;;;11.71;82.43;101738.00;107894;1274;72371;-80
2022/09/22 07:50:04;;;;;;;6.10;3.10;;;;;;;11.88;82.37;101731.96;107770;1275;73496;-79
2022/09/22 07:52:32;;;;;;;6.90;3.20;;;;;;;12.06;82.53;101732.61;107629;1274;62216;-80
2022/09/22 07:54:59;;;;;;;8.30;2.70;;;;;;;12.25;81.61;101734.02;107405;1276;61545;-79
2022/09/22 07:57:29;;;;;;;4.40;2.40;;;;;;;12.40;80.60;101735.34;107605;1274;74786;-79
2022/09/22 07:59:56;;;;;;;5.70;3.20;;;;;;;12.54;79.12;101738.64;107332;1277;72471;-79
2022/09/22 08:02:24;;;;;;;7.40;2.80;;;;;;;12.65;79.11;101737.06;107636;1277;74073;-80
2022/09/22 08:04:52;;;;;;;5.10;2.80;;;;;;;12.79;78.83;101740.46;107946;1274;61361;-79
2022/09/22 08:07:18;;;;;;;6.40;3.00;;;;;;;12.89;77.66;101741.60;107884;1277;60289;-79
2022/09/22 08:09:45;;;;;;;5.80;3.10;;;;;;;13.03;78.50;101739.25;107888;1274;76703;-79
2022/09/22 08:12:12;;;;;;;6.00;2.90;;;;;;;13.15;77.04;101735.46;107634;1276;71266;-79
2022/09/22 08:14:40;;;;;;;6.70;3.10;;;;;;;13.29;76.74;101736.41;107553;1275;73269;-79
2022/09/22 08:17:11;;;;;;;6.50;3.30;;;;;;;13.44;76.74;101738.67;107617;1276;63523;-80
2022/09/22 08:19:40;;;;;;;7.20;3.20;;;;;;;13.62;76.46;101737.09;107722;1274;61539;-77
2022/09/22 08:22:09;;;;;;;6.10;3.00;;;;;;;13.78;76.06;101738.40;107560;1274;75557;-77
2022/09/22 08:24:36;;;;;;;5.40;3.20;;;;;;;13.93;75.06;101737.05;108099;1275;72236;-76
2022/09/22 08:27:03;;;;;;;6.70;3.50;;;;;;;14.05;73.76;101742.82;107686;1274;72746;-78
2022/09/22 08:29:30;;;;;;;5.10;2.70;;;;;;;14.18;73.07;101736.96;107455;1274;62057;-77
2022/09/22 08:31:57;;;;;;;5.60;2.20;;;;;;;14.32;71.74;101737.74;107430;1274;61526;-76
2022/09/22 08:34:23;;;;;;;7.00;2.50;;;;;;;14.38;69.82;101737.14;107478;1274;73770;-78
2022/09/22 08:36:50;;;;;;;6.40;2.60;;;;;;;14.47;70.54;101730.65;107932;1274;71331;-78
2022/09/22 08:39:18;;;;;;;7.60;2.30;;;;;;;14.56;70.17;101735.09;107607;1272;71698;-77
2022/09/22 08:42:08;;;;;;;7.90;3.00;;;;;;;14.68;69.49;101732.20;107909;1276;62460;-78
2022/09/22 08:44:40;;;;;;;7.40;2.10;;;;;;;14.81;69.76;101733.71;107920;1274;60306;-78
2022/09/22 08:47:15;;;;;;;7.20;2.40;;;;;;;14.96;69.52;101739.27;108091;1274;73122;-78
2022/09/22 08:52:53;;;;;;;6.30;2.10;;;;;;;15.20;68.26;101734.83;107750;1274;72778;-79
2022/09/22 08:55:25;;;;;;;5.30;2.50;;;;;;;15.41;69.27;101737.74;107594;1274;63469;-78
2022/09/22 08:58:06;;;;;;;6.70;2.60;;;;;;;15.61;69.16;101740.94;107796;1276;61166;-79
2022/09/22 09:00:40;;;;;;;5.80;2.50;;;;;;;15.77;69.18;101737.75;108023;1276;74805;-79
2022/09/22 09:03:16;;;;;;;6.50;2.70;;;;;;;15.86;67.70;101735.09;107449;1277;70657;-79
2022/09/22 09:05:49;;;;;;;6.70;2.50;;;;;;;15.97;67.43;101735.02;107600;1274;74048;-78
2022/09/22 09:08:52;;;;;;;7.90;2.60;;;;;;;16.09;67.40;101737.70;107615;1274;61986;-78
2022/09/22 09:11:33;;;;;;;4.70;2.30;;;;;;;16.26;66.78;101734.13;107821;1274;59125;-79
2022/09/22 09:14:35;;;;;;;6.90;2.20;;;;;;;16.39;66.15;101737.45;107644;1275;74660;-78
2022/09/22 09:17:13;;;;;;;6.70;2.20;;;;;;;16.58;65.30;101732.39;107934;1274;71380;-78
2022/09/22 09:19:42;;;;;;;5.50;1.80;;;;;;;16.72;64.48;101730.77;107798;1274;72820;-78
2022/09/22 09:22:31;;;;;;;6.80;2.00;;;;;;;16.79;64.31;101729.40;107291;1274;63000;-78
2022/09/22 09:25:07;;;;;;;5.00;1.80;;;;;;;16.90;63.98;101733.46;108008;1274;62217;-78
2022/09/22 09:27:56;;;;;;;3.50;1.50;;;;;;;16.96;62.28;101730.42;107565;1275;75383;-79
2022/09/22 09:30:23;;;;;;;5.40;1.70;;;;;;;16.96;60.97;101728.85;107525;1274;72675;-79
2022/09/22 09:32:56;;;;;;;8.80;2.20;;;;;;;17.00;61.46;101729.10;107327;1272;71289;-78
2022/09/22 09:35:44;;;;;;;4.90;1.70;;;;;;;17.08;59.76;101729.46;108046;1273;60876;-77
2022/09/22 09:38:13;;;;;;;4.50;1.60;;;;;;;17.12;58.41;101731.11;107776;1276;61370;-78
2022/09/22 09:40:40;;;;;;;7.70;2.20;;;;;;;17.25;59.66;101721.68;107370;1274;76106;-78
2022/09/22 09:43:07;;;;;;;7.10;1.90;;;;;;;17.39;58.75;101721.96;107737;1274;71049;-79
2022/09/22 09:45:52;;;;;;;5.50;1.80;;;;;;;17.50;58.98;101724.05;108150;1274;73022;-78
2022/09/22 09:48:34;;;;;;;5.10;1.90;;;;;;;17.59;57.01;101722.52;107300;1274;61271;-78
2022/09/22 09:51:02;;;;;;;5.70;2.00;;;;;;;17.64;56.54;101718.13;107203;1276;61224;-77
2022/09/22 09:53:43;;;;;;;8.90;2.00;;;;;;;17.74;55.27;101711.70;107688;1274;76310;-77
2022/09/22 09:56:21;;;;;;;4.90;2.00;;;;;;;17.83;55.53;101711.04;107963;1274;72276;-77
2022/09/22 10:01:43;;;;;;;4.40;1.60;;;;;;;18.07;54.64;101714.59;107592;1274;62082;-76
2022/09/22 10:04:21;;;;;;;5.80;1.80;;;;;;;18.14;54.09;101711.48;107868;1274;61325;-76
2022/09/22 10:06:47;;;;;;;4.70;1.90;;;;;;;18.15;52.49;101706.58;107160;1276;74922;-75
2022/09/22 10:09:26;;;;;;;5.60;2.50;;;;;;;18.20;53.61;101708.08;107461;1274;70019;-73
2022/09/22 10:12:00;;;;;;;6.40;2.00;;;;;;;18.28;53.05;101707.48;107663;1274;73175;-74
2022/09/22 10:14:32;;;;;;;3.00;1.50;;;;;;;18.39;52.72;101707.41;107662;1274;60845;-75
2022/09/22 10:16:59;;;;;;;6.30;2.40;;;;;;;18.43;51.82;101707.79;107769;1274;61160;-74
2022/09/22 10:19:28;;;;;;;4.40;1.80;;;;;;;18.49;52.54;101701.23;107729;1274;75853;-74
2022/09/22 10:22:24;;;;;;;4.20;1.40;;;;;;;18.57;52.68;101698.31;107311;1274;70518;-74
2022/09/22 10:24:56;;;;;;;4.80;1.60;;;;;;;18.58;50.87;101697.64;107831;1274;74001;-73
2022/09/22 10:27:24;;;;;;;5.50;1.60;;;;;;;18.58;50.76;101692.85;107704;1274;61386;-75
2022/09/22 10:30:12;;;;;;;4.50;1.90;;;;;;;18.59;50.29;101691.05;107551;1274;61935;-73
2022/09/22 10:32:40;;;;;;;2.50;1.20;;;;;;;18.71;51.11;101692.84;107918;1274;74878;-73
2022/09/22 10:35:26;;;;;;;3.30;1.50;;;;;;;18.76;48.72;101694.67;107837;1274;71239;-73
2022/09/22 10:38:08;;;;;;;3.00;1.50;;;;;;;18.89;49.85;101688.95;107880;1273;73898;-74
2022/09/22 10:40:38;;;;;;;7.30;1.80;;;;;;;18.98;48.58;101688.59;107582;1274;61585;-73
2022/09/22 10:43:28;;;;;;;3.50;1.80;;;;;;;19.10;47.63;101679.58;107615;1274;61628;-72
2022/09/22 10:46:05;;;;;;;4.10;1.40;;;;;;;19.17;46.12;101673.94;107457;1274;73825;-74
2022/09/22 10:49:04;;;;;;;4.10;1.70;;;;;;;19.35;48.78;101673.95;107348;1274;71404;-74
2022/09/22 10:51:53;;;;;;;3.40;1.30;;;;;;;19.53;47.83;101671.66;107612;1275;73353;-74
2022/09/22 10:54:29;;;;;;;6.40;1.40;;;;;;;19.73;48.22;101669.67;108150;1274;62179;-74
2022/09/22 10:57:07;;;;;;;3.80;1.30;;;;;;;19.97;48.48;101665.95;107785;1274;60363;-73
2022/09/22 10:59:40;;;;;;;4.20;1.40;;;;;;;20.25;47.14;101665.49;107228;1274;75285;-73
2022/09/22 11:02:25;;;;;;;3.50;1.30;;;;;;;20.49;47.08;101660.91;107908;1272;71363;-73
2022/09/22 11:05:17;;;;;;;4.80;1.10;;;;;;;20.70;45.95;101666.09;107392;1274;73219;-73
2022/09/22 11:14:27;;;;;;;4.50;1.30;;;;;;;20.52;42.55;101654.93;107968;1274;73891;-74
2022/09/22 11:17:21;;;;;;;3.30;1.00;;;;;;;20.36;43.77;101651.75;107444;1274;69831;-75
2022/09/22 11:20:15;;;;;;;4.60;1.10;;;;;;;20.41;43.36;101649.85;107568;1274;73940;-74
2022/09/22 11:23:06;;;;;;;3.30;0.90;;;;;;;20.46;43.41;101645.46;107519;1274;61188;-74
2022/09/22 11:25:48;;;;;;;3.00;0.90;;;;;;;20.68;44.66;101644.34;107570;1274;61727;-73
2022/09/22 11:28:50;;;;;;;2.40;0.90;;;;;;;20.70;43.36;101644.54;107922;1274;76111;-74
2022/09/22 11:31:36;;;;;;;2.10;0.90;;;;;;;20.79;44.32;101639.78;107659;1274;72203;-74
2022/09/22 11:34:18;;;;;;;3.40;0.90;;;;;;;20.98;43.14;101636.21;107464;1276;72642;-74
2022/09/22 11:37:24;;;;;;;2.90;0.80;;;;;;;21.27;43.08;101629.96;107530;1274;60509;-74
2022/09/22 11:39:59;;;;;;;3.80;1.00;;;;;;;21.63;43.52;101626.86;107550;1274;61597;-74
2022/09/22 11:42:37;;;;;;;4.00;1.10;;;;;;;22.02;42.40;101625.90;107571;1274;74416;-74
2022/09/22 11:45:19;;;;;;;4.10;0.90;;;;;;;22.38;41.12;101622.31;107300;1274;71787;-75
2022/09/22 11:47:56;;;;;;;2.30;0.80;;;;;;;22.85;40.92;101616.27;107984;1274;73234;-75
2022/09/22 11:50:29;;;;;;;3.30;0.80;;;;;;;23.22;37.50;101614.02;107832;1274;59497;-73
2022/09/22 11:53:22;;;;;;;2.70;0.60;;;;;;;23.59;36.27;101615.67;107172;1274;543593;-73
2022/09/22 11:55:58;;;;;;;2.60;0.80;;;;;;;23.39;35.55;101609.52;107544;1274;74671;-74
2022/09/22 11:58:28;;;;;;;3.20;0.80;;;;;;;23.50;36.23;101603.58;107677;1274;71199;-73
2022/09/22 12:01:12;;;;;;;3.00;0.80;;;;;;;23.42;36.38;101609.10;108009;1275;72680;-73